createdAt,value
2023-03-01T00:00:19.740Z,19.38
2023-03-01T00:01:19.901Z,19.37
2023-03-01T00:02:19.846Z,19.37
2023-03-01T00:03:19.822Z,19.40
2023-03-01T00:04:19.953Z,19.39
2023-03-01T00:05:19.859Z,19.31
2023-03-01T00:06:19.871Z,19.36
2023-03-01T00:07:19.949Z,19.31
2023-03-01T00:08:20.010Z,19.28
2023-03-01T00:09:20.022Z,19.30
2023-03-01T00:10:19.966Z,19.27
2023-03-01T00:11:20.061Z,19.33
2023-03-01T00:12:20.029Z,19.28
2023-03-01T00:13:20.081Z,19.27
2023-03-01T00:14:20.080Z,19.28
2023-03-01T00:15:20.097Z,19.31
2023-03-01T00:16:20.218Z,19.27
2023-03-01T00:17:20.148Z,19.27
2023-03-01T00:18:20.186Z,19.27
2023-03-01T01:16:15.870Z,19.18
2023-03-01T01:17:15.746Z,19.18
2023-03-01T01:18:16.212Z,19.17
2023-03-01T01:19:15.688Z,19.24
2023-03-01T01:20:15.758Z,19.17
2023-03-01T01:21:15.819Z,19.18
2023-03-01T01:22:15.799Z,19.15
2023-03-01T01:23:15.781Z,19.14
2023-03-01T01:24:15.790Z,19.14
2023-03-01T01:25:15.807Z,19.17
2023-03-01T01:26:15.915Z,19.15
2023-03-01T01:27:15.961Z,19.15
2023-03-01T01:28:15.994Z,19.09
2023-03-01T01:29:16.020Z,19.12
2023-03-01T01:30:16.065Z,19.08
2023-03-01T01:31:16.239Z,19.11
2023-03-01T01:32:16.241Z,19.06
2023-03-01T02:08:59.280Z,18.88
2023-03-01T02:09:59.285Z,18.94
2023-03-01T02:10:59.291Z,18.94
2023-03-01T02:11:59.272Z,18.91
2023-03-01T02:12:59.250Z,18.93
2023-03-01T02:13:59.307Z,18.94
2023-03-01T02:14:59.250Z,18.96
2023-03-01T02:15:59.338Z,18.88
2023-03-01T02:16:59.220Z,18.88
2023-03-01T02:17:59.222Z,18.87
2023-03-01T02:18:59.230Z,18.89
2023-03-01T02:19:59.253Z,18.89
2023-03-01T02:20:59.221Z,18.84
2023-03-01T02:21:59.186Z,18.89
2023-03-01T02:22:59.186Z,18.84
2023-03-01T02:23:59.177Z,18.86
2023-03-01T02:24:59.163Z,18.86
2023-03-01T02:25:59.180Z,18.75
2023-03-01T02:26:59.161Z,18.75
2023-03-01T02:27:59.149Z,18.75
2023-03-01T02:28:59.132Z,18.77
2023-03-01T02:29:59.127Z,18.75
2023-03-01T02:36:35.263Z,18.71
2023-03-01T02:37:35.464Z,18.66
2023-03-01T02:38:35.321Z,18.70
2023-03-01T02:39:35.171Z,18.68
2023-03-01T02:40:35.221Z,18.70
2023-03-01T02:41:35.320Z,18.68
2023-03-01T02:42:35.414Z,18.53
2023-03-01T02:44:35.439Z,18.64
2023-03-01T02:45:35.386Z,18.59
2023-03-01T02:49:59.691Z,18.41
2023-03-01T02:50:59.629Z,18.53
2023-03-01T02:51:59.696Z,18.30
2023-03-01T02:53:00.178Z,18.36
2023-03-01T02:55:59.860Z,18.32
2023-03-01T02:56:59.772Z,18.32
2023-03-01T02:57:59.799Z,18.27
2023-03-01T08:16:35.582Z,18.96
2023-03-01T08:34:56.674Z,26.65
2023-03-01T08:35:57.369Z,25.14
2023-03-01T09:57:34.916Z,17.33
2023-03-01T10:07:42.584Z,18.79
2023-03-01T10:08:40.775Z,18.76
2023-03-01T10:09:40.035Z,18.69
2023-03-01T10:10:40.940Z,18.63
2023-03-01T10:11:41.506Z,18.68
2023-03-01T10:12:39.791Z,18.60
2023-03-01T10:13:40.026Z,18.61
2023-03-01T10:16:00.413Z,18.11
2023-03-01T10:17:00.094Z,18.50
2023-03-01T10:17:59.698Z,18.53
2023-03-01T10:21:18.120Z,18.49
2023-03-01T10:22:18.033Z,18.48
2023-03-01T10:23:18.819Z,18.08
2023-03-01T10:24:18.737Z,18.24
2023-03-01T10:26:36.878Z,18.74
2023-03-01T10:27:38.206Z,19.10
2023-03-01T10:28:36.983Z,18.72
2023-03-01T10:29:37.008Z,18.60
2023-03-01T11:13:33.005Z,18.02
2023-03-01T11:15:50.583Z,17.65
2023-03-01T11:26:07.883Z,18.37
2023-03-01T11:27:07.676Z,18.21
2023-03-01T11:39:29.889Z,19.82
2023-03-01T11:42:36.836Z,18.72
2023-03-01T12:42:51.750Z,19.74
2023-03-01T12:43:51.790Z,19.44
2023-03-01T12:44:51.792Z,19.00
2023-03-01T12:45:51.715Z,18.94
2023-03-01T12:46:51.694Z,19.02
2023-03-01T12:47:52.125Z,19.02
2023-03-01T12:48:51.818Z,19.00
2023-03-01T12:49:51.574Z,19.12
2023-03-01T12:50:51.593Z,19.25
2023-03-01T12:51:51.692Z,19.12
2023-03-01T12:52:51.730Z,20.06
2023-03-01T12:53:51.837Z,20.95
2023-03-01T12:54:51.988Z,20.57
2023-03-01T12:55:51.809Z,20.34
2023-03-01T12:56:52.035Z,21.12
2023-03-01T12:57:51.938Z,20.79
2023-03-01T12:58:55.675Z,20.09
2023-03-01T13:00:51.933Z,19.91
2023-03-01T13:01:52.032Z,20.37
2023-03-01T13:02:51.846Z,20.66
2023-03-01T13:03:51.960Z,21.23
2023-03-01T13:04:51.798Z,21.66
2023-03-01T13:05:51.915Z,22.27
2023-03-01T13:06:51.864Z,22.56
2023-03-01T13:08:51.865Z,22.83
2023-03-01T13:09:51.794Z,22.94
2023-03-01T13:10:51.828Z,22.71
2023-03-01T13:11:51.973Z,22.59
2023-03-01T13:12:51.847Z,22.56
2023-03-01T13:13:51.776Z,22.52
2023-03-01T13:14:51.833Z,22.22
2023-03-01T13:15:51.885Z,22.24
2023-03-01T13:28:37.634Z,22.98
2023-03-01T13:29:37.220Z,22.15
2023-03-01T13:30:37.119Z,21.91
2023-03-01T13:41:52.952Z,21.30
2023-03-01T13:43:04.764Z,23.33
2023-03-01T13:44:53.685Z,22.84
2023-03-01T13:45:52.791Z,22.73
2023-03-01T13:46:52.944Z,22.94
2023-03-01T13:56:48.616Z,24.98
2023-03-01T14:20:27.320Z,22.42
2023-03-01T14:22:53.073Z,20.83
2023-03-01T14:25:11.154Z,21.70
2023-03-01T14:26:10.901Z,22.47
2023-03-01T14:27:11.029Z,22.84
2023-03-01T14:28:10.763Z,23.84
2023-03-01T14:29:10.705Z,23.15
2023-03-01T14:30:10.721Z,23.17
2023-03-01T14:32:30.199Z,23.02
2023-03-01T14:33:30.181Z,22.93
2023-03-01T14:34:30.818Z,23.07
2023-03-01T14:35:29.673Z,23.03
2023-03-01T14:36:29.850Z,22.91
2023-03-01T14:37:29.585Z,23.09
2023-03-01T14:38:29.688Z,22.87
2023-03-01T14:39:29.709Z,22.84
2023-03-01T14:40:29.806Z,22.86
2023-03-01T14:41:29.734Z,22.86
2023-03-01T14:42:29.780Z,22.45
2023-03-01T14:43:29.922Z,22.61
2023-03-01T14:44:29.836Z,22.45
2023-03-01T14:45:29.974Z,22.48
2023-03-01T14:46:30.433Z,22.43
2023-03-01T14:47:29.981Z,22.47
2023-03-01T14:48:30.053Z,22.38
2023-03-01T14:53:51.156Z,22.62
2023-03-01T14:54:49.162Z,22.67
2023-03-01T14:57:50.057Z,22.78
2023-03-01T15:44:43.809Z,22.47
2023-03-01T15:45:39.570Z,22.71
2023-03-01T15:46:39.172Z,22.69
2023-03-01T15:47:38.514Z,22.85
2023-03-01T15:48:38.485Z,22.86
2023-03-01T15:49:49.548Z,23.12
2023-03-01T15:50:39.471Z,24.29
2023-03-01T15:51:38.392Z,24.48
2023-03-01T15:52:41.826Z,24.88
2023-03-01T15:54:57.954Z,26.01
2023-03-01T15:57:17.137Z,26.43
2023-03-01T15:58:17.937Z,26.11
2023-03-01T17:13:46.286Z,22.86
2023-03-01T17:14:46.323Z,22.89
2023-03-01T17:15:46.410Z,22.80
2023-03-01T17:16:46.534Z,22.72
2023-03-01T17:17:46.529Z,22.69
2023-03-01T17:18:46.598Z,22.63
2023-03-01T17:19:47.079Z,22.63
2023-03-01T17:51:06.301Z,22.37
2023-03-01T17:52:06.321Z,22.29
2023-03-01T17:53:06.382Z,22.29
2023-03-01T17:54:06.395Z,22.34
2023-03-01T17:57:57.359Z,22.40
2023-03-01T18:04:55.510Z,22.43
2023-03-01T18:07:22.740Z,22.42
2023-03-01T18:09:40.832Z,22.41
2023-03-01T18:12:55.073Z,22.49
2023-03-01T18:15:12.702Z,22.49
2023-03-01T18:16:12.413Z,22.45
2023-03-01T18:17:12.500Z,22.46
2023-03-01T18:18:12.417Z,22.46
2023-03-01T18:19:12.394Z,22.46
2023-03-01T18:20:12.444Z,22.39
2023-03-01T18:21:12.391Z,22.34
2023-03-01T18:22:12.432Z,22.48
2023-03-01T18:23:12.415Z,22.37
2023-03-01T18:24:12.362Z,22.42
2023-03-01T18:25:12.597Z,22.42
2023-03-01T18:26:12.452Z,22.47
2023-03-01T18:27:12.577Z,22.45
2023-03-01T18:28:12.350Z,22.44
2023-03-01T18:29:12.279Z,22.44
2023-03-01T18:30:12.347Z,22.34
2023-03-01T18:31:12.328Z,22.33
2023-03-01T18:32:12.342Z,22.32
2023-03-01T18:33:12.273Z,22.39
2023-03-01T18:34:12.305Z,22.34
2023-03-01T18:35:12.318Z,22.32
2023-03-01T18:36:12.934Z,22.30
2023-03-01T18:37:12.377Z,22.29
2023-03-01T18:38:12.428Z,22.32
2023-03-01T18:39:12.407Z,22.35
2023-03-01T18:40:12.588Z,22.36
2023-03-01T18:41:12.488Z,22.41
2023-03-01T18:42:12.512Z,22.34
2023-03-01T18:43:12.545Z,22.35
2023-03-01T18:44:12.591Z,22.32
2023-03-01T18:45:12.636Z,22.29
2023-03-01T18:46:12.654Z,22.35
2023-03-01T18:47:12.641Z,22.35
2023-03-01T18:48:12.713Z,22.27
2023-03-01T18:49:12.722Z,22.30
2023-03-01T18:50:12.754Z,22.20
2023-03-01T18:51:12.806Z,22.27
2023-03-01T18:52:12.867Z,22.29
2023-03-01T18:53:12.869Z,22.36
2023-03-01T18:54:12.851Z,22.33
2023-03-01T18:55:12.964Z,22.32
2023-03-01T18:56:12.908Z,22.24
2023-03-01T18:57:12.939Z,22.17
2023-03-01T18:58:13.042Z,22.27
2023-03-01T18:59:13.066Z,22.26
2023-03-01T19:00:13.121Z,22.27
2023-03-01T19:04:13.370Z,22.32
2023-03-01T19:05:13.729Z,22.24
2023-03-01T19:06:13.658Z,22.19
2023-03-01T19:07:13.517Z,22.22
2023-03-01T19:08:13.595Z,22.27
2023-03-01T19:09:14.279Z,22.15
2023-03-01T19:26:10.776Z,22.43
2023-03-01T19:27:10.717Z,22.35
2023-03-01T19:28:10.893Z,22.32
2023-03-01T19:29:10.550Z,22.29
2023-03-01T19:30:10.574Z,22.28
2023-03-01T19:31:10.644Z,22.27
2023-03-01T19:32:11.253Z,22.23
2023-03-01T19:33:10.613Z,22.28
2023-03-01T19:34:12.372Z,22.25
2023-03-01T19:35:10.670Z,22.25
2023-03-01T19:36:10.661Z,22.28
2023-03-01T19:37:10.807Z,22.28
2023-03-01T19:38:10.783Z,22.33
2023-03-01T19:39:12.374Z,22.24
2023-03-01T19:40:11.240Z,22.27
2023-03-01T19:41:11.134Z,22.27
2023-03-01T19:43:30.039Z,22.28
2023-03-01T19:44:29.925Z,22.27
2023-03-01T19:45:33.528Z,22.30
2023-03-01T19:46:30.226Z,22.24
2023-03-01T19:47:29.789Z,22.24
2023-03-01T19:51:30.003Z,22.21
2023-03-01T19:52:29.808Z,22.12
2023-03-01T19:53:29.726Z,22.27
2023-03-01T19:54:29.674Z,22.12
2023-03-01T19:55:29.760Z,22.04
2023-03-01T19:56:30.157Z,22.06
2023-03-01T19:57:29.641Z,22.04
2023-03-01T19:58:29.906Z,21.84
2023-03-01T19:59:29.918Z,21.89
2023-03-01T20:00:30.040Z,21.98
2023-03-01T20:01:30.038Z,22.07
2023-03-01T20:02:29.694Z,22.01
2023-03-01T20:03:29.700Z,22.19
2023-03-01T20:04:29.621Z,22.13
2023-03-01T20:05:29.676Z,22.07
2023-03-01T20:06:29.890Z,21.98
2023-03-01T20:07:29.628Z,22.07
2023-03-01T20:08:29.604Z,22.06
2023-03-01T20:09:29.579Z,22.04
2023-03-01T20:10:29.642Z,22.06
2023-03-01T20:37:57.734Z,21.52
2023-03-01T20:38:57.748Z,21.41
2023-03-01T20:39:57.576Z,21.50
2023-03-01T20:40:57.570Z,21.58
2023-03-01T20:41:57.617Z,21.52
2023-03-01T20:42:57.604Z,21.43
2023-03-01T20:43:57.594Z,21.43
2023-03-01T20:44:57.579Z,21.38
2023-03-01T20:45:57.785Z,21.57
2023-03-01T20:50:59.276Z,21.29
2023-03-01T20:51:59.334Z,21.59
2023-03-01T20:52:59.117Z,21.46
2023-03-01T20:53:59.180Z,21.42
2023-03-01T20:54:59.185Z,21.40
2023-03-01T20:55:59.123Z,21.37
2023-03-01T20:56:59.134Z,21.48
2023-03-01T20:57:59.090Z,21.21
2023-03-01T20:59:00.660Z,21.53
2023-03-01T22:18:29.415Z,20.91
2023-03-01T22:19:30.198Z,21.07
2023-03-01T22:20:29.721Z,20.90
2023-03-01T22:21:30.236Z,20.82
2023-03-01T22:22:29.183Z,20.88
2023-03-01T22:23:29.291Z,20.91
2023-03-01T22:24:29.357Z,20.96
2023-03-01T22:25:29.185Z,20.83
2023-03-01T22:26:30.738Z,20.84
2023-03-01T22:27:29.226Z,20.62
2023-03-01T22:28:29.220Z,20.61
2023-03-01T22:29:29.337Z,20.99
2023-03-01T22:30:30.193Z,20.85
2023-03-01T22:31:29.238Z,20.70
2023-03-01T22:32:29.241Z,20.64
2023-03-01T22:33:29.251Z,21.00
2023-03-01T22:34:30.326Z,20.98
2023-03-01T22:35:29.305Z,20.70
2023-03-01T22:36:29.165Z,20.76
2023-03-01T22:37:29.192Z,20.76
2023-03-01T22:38:29.184Z,20.91
2023-03-01T22:39:29.268Z,20.76
2023-03-01T22:40:29.244Z,20.78
2023-03-01T22:41:29.220Z,20.71
2023-03-01T22:42:29.229Z,20.70
2023-03-01T22:43:29.306Z,20.85
2023-03-01T22:44:29.330Z,20.73
2023-03-01T22:45:29.299Z,20.70
2023-03-01T22:46:29.176Z,20.66
2023-03-01T22:47:29.220Z,20.81
2023-03-01T22:48:29.158Z,20.82
2023-03-01T22:49:29.232Z,20.71
2023-03-01T22:50:29.175Z,20.84
2023-03-01T22:51:29.184Z,20.98
2023-03-01T22:52:29.176Z,20.78
2023-03-01T22:53:29.105Z,20.67
2023-03-01T22:54:29.151Z,20.59
2023-03-01T22:55:29.097Z,20.67
2023-03-01T22:56:29.153Z,20.81
2023-03-01T22:57:29.167Z,20.64
2023-03-01T22:58:29.184Z,20.69
2023-03-01T22:59:29.131Z,20.52
2023-03-01T23:00:29.176Z,20.71
2023-03-01T23:01:29.138Z,20.59
2023-03-01T23:02:29.317Z,20.76
2023-03-01T23:03:29.160Z,20.84
2023-03-01T23:04:29.068Z,20.72
2023-03-01T23:06:48.129Z,20.88
2023-03-01T23:07:48.189Z,20.73
2023-03-01T23:08:47.893Z,20.98
2023-03-01T23:09:49.966Z,20.79
2023-03-01T23:10:47.881Z,20.65
2023-03-01T23:11:47.882Z,20.54
2023-03-01T23:12:47.891Z,20.69
2023-03-01T23:13:47.871Z,20.67
2023-03-01T23:14:47.843Z,20.82
2023-03-01T23:15:47.839Z,20.86
2023-03-01T23:16:47.969Z,20.49
2023-03-01T23:42:41.158Z,20.38
2023-03-01T23:53:19.325Z,20.58
